sensor_id;sensor_type;location;lat;lon;timestamp;temperature;humidity
2767;DHT22;1391;46.74287300;11.63683300;2024-02-15T00:00:25;0.40;99.20
2767;DHT22;1391;46.74287300;11.63683300;2024-02-15T00:02:52;0.40;99.90
2767;DHT22;1391;46.74287300;11.63683300;2024-02-15T00:05:20;0.60;99.90
2767;DHT22;1391;46.74287300;11.63683300;2024-02-15T00:07:48;0.60;99.90
2767;DHT22;1391;46.74287300;11.63683300;2024-02-15T00:10:17;0.70;99.90
2767;DHT22;1391;46.74287300;11.63683300;2024-02-15T00:12:45;0.40;99.90
2767;DHT22;1391;46.74287300;11.63683300;2024-02-15T00:15:16;0.40;99.90
2767;DHT22;1391;46.74287300;11.63683300;2024-02-15T00:17:45;0.60;99.90
2767;DHT22;1391;46.74287300;11.63683300;2024-02-15T00:20:13;0.40;99.90
2767;DHT22;1391;46.74287300;11.63683300;2024-02-15T00:22:40;0.30;99.90
2767;DHT22;1391;46.74287300;11.63683300;2024-02-15T00:25:08;0.30;99.90
2767;DHT22;1391;46.74287300;11.63683300;2024-02-15T00:27:38;1.00;99.90
2767;DHT22;1391;46.74287300;11.63683300;2024-02-15T00:30:06;1.20;99.90
2767;DHT22;1391;46.74287300;11.63683300;2024-02-15T00:32:35;1.20;99.90
2767;DHT22;1391;46.74287300;11.63683300;2024-02-15T00:35:03;1.00;99.90
2767;DHT22;1391;46.74287300;11.63683300;2024-02-15T00:37:33;1.70;99.90
2767;DHT22;1391;46.74287300;11.63683300;2024-02-15T00:40:00;1.60;99.60
2767;DHT22;1391;46.74287300;11.63683300;2024-02-15T00:42:29;1.40;98.20
2767;DHT22;1391;46.74287300;11.63683300;2024-02-15T00:44:59;1.60;98.50
2767;DHT22;1391;46.74287300;11.63683300;2024-02-15T00:47:26;1.60;98.00
2767;DHT22;1391;46.74287300;11.63683300;2024-02-15T00:49:54;1.50;97.90
2767;DHT22;1391;46.74287300;11.63683300;2024-02-15T00:52:23;1.70;97.90
2767;DHT22;1391;46.74287300;11.63683300;2024-02-15T00:54:51;1.30;97.60
2767;DHT22;1391;46.74287300;11.63683300;2024-02-15T00:57:18;1.60;97.30
2767;DHT22;1391;46.74287300;11.63683300;2024-02-15T00:59:46;1.60;97.40
2767;DHT22;1391;46.74287300;11.63683300;2024-02-15T01:02:14;1.60;97.50
2767;DHT22;1391;46.74287300;11.63683300;2024-02-15T01:04:43;1.50;97.70
2767;DHT22;1391;46.74287300;11.63683300;2024-02-15T01:07:12;2.00;97.80
2767;DHT22;1391;46.74287300;11.63683300;2024-02-15T01:09:40;1.40;97.50
2767;DHT22;1391;46.74287300;11.63683300;2024-02-15T01:12:08;1.40;98.80
2767;DHT22;1391;46.74287300;11.63683300;2024-02-15T01:14:36;1.90;99.90
2767;DHT22;1391;46.74287300;11.63683300;2024-02-15T01:17:04;1.60;99.90
2767;DHT22;1391;46.74287300;11.63683300;2024-02-15T01:19:35;1.60;99.90
2767;DHT22;1391;46.74287300;11.63683300;2024-02-15T01:22:03;1.70;99.90
2767;DHT22;1391;46.74287300;11.63683300;2024-02-15T01:24:32;1.60;99.90
2767;DHT22;1391;46.74287300;11.63683300;2024-02-15T01:27:01;1.40;99.90
2767;DHT22;1391;46.74287300;11.63683300;2024-02-15T01:29:28;1.70;99.90
2767;DHT22;1391;46.74287300;11.63683300;2024-02-15T01:31:56;1.60;99.90
2767;DHT22;1391;46.74287300;11.63683300;2024-02-15T01:34:23;1.30;99.90
2767;DHT22;1391;46.74287300;11.63683300;2024-02-15T01:36:53;1.60;99.90
2767;DHT22;1391;46.74287300;11.63683300;2024-02-15T01:39:21;2.00;99.90
2767;DHT22;1391;46.74287300;11.63683300;2024-02-15T01:41:48;1.80;99.90
2767;DHT22;1391;46.74287300;11.63683300;2024-02-15T01:44:16;1.90;99.10
2767;DHT22;1391;46.74287300;11.63683300;2024-02-15T01:46:46;1.80;97.90
2767;DHT22;1391;46.74287300;11.63683300;2024-02-15T01:49:15;1.70;97.10
2767;DHT22;1391;46.74287300;11.63683300;2024-02-15T01:51:43;1.90;96.90
2767;DHT22;1391;46.74287300;11.63683300;2024-02-15T01:54:13;1.60;97.30
2767;DHT22;1391;46.74287300;11.63683300;2024-02-15T01:56:43;1.70;97.90
2767;DHT22;1391;46.74287300;11.63683300;2024-02-15T01:59:10;1.70;98.60
2767;DHT22;1391;46.74287300;11.63683300;2024-02-15T02:01:41;1.30;98.60
2767;DHT22;1391;46.74287300;11.63683300;2024-02-15T02:04:09;2.00;98.40
2767;DHT22;1391;46.74287300;11.63683300;2024-02-15T02:06:37;1.90;97.90
2767;DHT22;1391;46.74287300;11.63683300;2024-02-15T02:09:05;1.90;97.30
2767;DHT22;1391;46.74287300;11.63683300;2024-02-15T02:11:34;1.90;96.80
2767;DHT22;1391;46.74287300;11.63683300;2024-02-15T02:14:02;2.00;96.50
2767;DHT22;1391;46.74287300;11.63683300;2024-02-15T02:16:31;1.50;97.90
2767;DHT22;1391;46.74287300;11.63683300;2024-02-15T02:18:59;1.70;99.90
2767;DHT22;1391;46.74287300;11.63683300;2024-02-15T02:21:27;1.90;99.90
2767;DHT22;1391;46.74287300;11.63683300;2024-02-15T02:23:56;1.80;99.80
2767;DHT22;1391;46.74287300;11.63683300;2024-02-15T02:26:26;1.60;98.70
2767;DHT22;1391;46.74287300;11.63683300;2024-02-15T02:28:53;1.70;99.50
2767;DHT22;1391;46.74287300;11.63683300;2024-02-15T02:31:20;1.90;99.80
2767;DHT22;1391;46.74287300;11.63683300;2024-02-15T02:33:52;1.90;99.10
2767;DHT22;1391;46.74287300;11.63683300;2024-02-15T02:36:21;1.80;99.00
2767;DHT22;1391;46.74287300;11.63683300;2024-02-15T02:38:52;1.90;98.60
2767;DHT22;1391;46.74287300;11.63683300;2024-02-15T02:41:20;2.00;97.90
2767;DHT22;1391;46.74287300;11.63683300;2024-02-15T02:43:50;1.40;97.90
2767;DHT22;1391;46.74287300;11.63683300;2024-02-15T02:46:20;1.40;98.00
2767;DHT22;1391;46.74287300;11.63683300;2024-02-15T02:48:47;1.40;97.60
2767;DHT22;1391;46.74287300;11.63683300;2024-02-15T02:51:15;1.60;96.90
2767;DHT22;1391;46.74287300;11.63683300;2024-02-15T02:53:43;1.60;98.20
2767;DHT22;1391;46.74287300;11.63683300;2024-02-15T02:56:10;1.50;98.30
2767;DHT22;1391;46.74287300;11.63683300;2024-02-15T02:58:38;1.90;98.60
2767;DHT22;1391;46.74287300;11.63683300;2024-02-15T03:01:10;1.60;98.90
2767;DHT22;1391;46.74287300;11.63683300;2024-02-15T03:03:39;1.50;97.70
2767;DHT22;1391;46.74287300;11.63683300;2024-02-15T03:06:06;1.40;98.10
2767;DHT22;1391;46.74287300;11.63683300;2024-02-15T03:08:35;1.40;99.30
2767;DHT22;1391;46.74287300;11.63683300;2024-02-15T03:11:03;1.50;99.90
2767;DHT22;1391;46.74287300;11.63683300;2024-02-15T03:13:30;1.60;99.90
2767;DHT22;1391;46.74287300;11.63683300;2024-02-15T03:15:59;1.30;99.90
2767;DHT22;1391;46.74287300;11.63683300;2024-02-15T03:18:28;1.60;99.90
2767;DHT22;1391;46.74287300;11.63683300;2024-02-15T03:20:55;1.30;99.90
2767;DHT22;1391;46.74287300;11.63683300;2024-02-15T03:23:22;1.70;99.90
2767;DHT22;1391;46.74287300;11.63683300;2024-02-15T03:25:50;1.90;99.90
2767;DHT22;1391;46.74287300;11.63683300;2024-02-15T03:28:17;1.90;99.90
2767;DHT22;1391;46.74287300;11.63683300;2024-02-15T03:30:47;1.70;99.30
2767;DHT22;1391;46.74287300;11.63683300;2024-02-15T03:33:15;2.00;98.80
2767;DHT22;1391;46.74287300;11.63683300;2024-02-15T03:35:43;1.90;97.50
2767;DHT22;1391;46.74287300;11.63683300;2024-02-15T03:38:12;1.90;96.20
2767;DHT22;1391;46.74287300;11.63683300;2024-02-15T03:40:39;1.80;95.70
2767;DHT22;1391;46.74287300;11.63683300;2024-02-15T03:43:08;2.00;95.00
2767;DHT22;1391;46.74287300;11.63683300;2024-02-15T03:45:35;2.00;94.70
2767;DHT22;1391;46.74287300;11.63683300;2024-02-15T03:48:03;2.10;94.80
2767;DHT22;1391;46.74287300;11.63683300;2024-02-15T03:50:33;1.70;94.70
2767;DHT22;1391;46.74287300;11.63683300;2024-02-15T03:53:02;2.00;95.60
2767;DHT22;1391;46.74287300;11.63683300;2024-02-15T03:55:30;1.50;95.90
2767;DHT22;1391;46.74287300;11.63683300;2024-02-15T03:57:59;1.90;97.80
2767;DHT22;1391;46.74287300;11.63683300;2024-02-15T04:00:26;1.50;97.40
2767;DHT22;1391;46.74287300;11.63683300;2024-02-15T04:02:53;1.40;96.30
2767;DHT22;1391;46.74287300;11.63683300;2024-02-15T04:05:22;1.50;95.80
2767;DHT22;1391;46.74287300;11.63683300;2024-02-15T04:07:49;1.30;96.00
2767;DHT22;1391;46.74287300;11.63683300;2024-02-15T04:10:19;1.30;95.30
2767;DHT22;1391;46.74287300;11.63683300;2024-02-15T04:12:48;1.30;95.00
2767;DHT22;1391;46.74287300;11.63683300;2024-02-15T04:15:15;0.60;96.10
2767;DHT22;1391;46.74287300;11.63683300;2024-02-15T04:17:44;1.20;97.90
2767;DHT22;1391;46.74287300;11.63683300;2024-02-15T04:20:11;0.90;98.90
2767;DHT22;1391;46.74287300;11.63683300;2024-02-15T04:22:41;1.20;98.60
2767;DHT22;1391;46.74287300;11.63683300;2024-02-15T04:25:09;1.30;98.10
2767;DHT22;1391;46.74287300;11.63683300;2024-02-15T04:27:43;1.20;98.00
2767;DHT22;1391;46.74287300;11.63683300;2024-02-15T04:30:11;0.90;98.20
2767;DHT22;1391;46.74287300;11.63683300;2024-02-15T04:32:41;0.90;99.30
2767;DHT22;1391;46.74287300;11.63683300;2024-02-15T04:35:09;1.00;99.90
2767;DHT22;1391;46.74287300;11.63683300;2024-02-15T04:37:37;1.30;99.90
2767;DHT22;1391;46.74287300;11.63683300;2024-02-15T04:40:07;1.10;99.90
2767;DHT22;1391;46.74287300;11.63683300;2024-02-15T04:42:36;1.20;99.90
2767;DHT22;1391;46.74287300;11.63683300;2024-02-15T04:45:06;1.20;99.90
2767;DHT22;1391;46.74287300;11.63683300;2024-02-15T04:47:35;1.20;99.90
2767;DHT22;1391;46.74287300;11.63683300;2024-02-15T04:50:04;1.20;99.90
2767;DHT22;1391;46.74287300;11.63683300;2024-02-15T04:52:32;1.20;99.90
2767;DHT22;1391;46.74287300;11.63683300;2024-02-15T04:55:00;1.30;99.90
2767;DHT22;1391;46.74287300;11.63683300;2024-02-15T04:57:30;0.90;99.90
2767;DHT22;1391;46.74287300;11.63683300;2024-02-15T05:00:00;1.20;99.90
2767;DHT22;1391;46.74287300;11.63683300;2024-02-15T05:02:36;1.20;99.90
2767;DHT22;1391;46.74287300;11.63683300;2024-02-15T05:05:06;1.20;99.90
2767;DHT22;1391;46.74287300;11.63683300;2024-02-15T05:07:34;1.30;99.90
2767;DHT22;1391;46.74287300;11.63683300;2024-02-15T05:10:03;0.90;99.10
2767;DHT22;1391;46.74287300;11.63683300;2024-02-15T05:12:32;0.60;99.50
2767;DHT22;1391;46.74287300;11.63683300;2024-02-15T05:15:00;0.70;99.90
2767;DHT22;1391;46.74287300;11.63683300;2024-02-15T05:17:27;0.60;99.90
2767;DHT22;1391;46.74287300;11.63683300;2024-02-15T05:19:56;0.60;99.90
2767;DHT22;1391;46.74287300;11.63683300;2024-02-15T05:22:25;0.60;99.90
2767;DHT22;1391;46.74287300;11.63683300;2024-02-15T05:24:54;0.70;99.90
2767;DHT22;1391;46.74287300;11.63683300;2024-02-15T05:27:21;0.60;99.90
2767;DHT22;1391;46.74287300;11.63683300;2024-02-15T05:29:49;0.60;99.90
2767;DHT22;1391;46.74287300;11.63683300;2024-02-15T05:32:18;0.60;99.90
2767;DHT22;1391;46.74287300;11.63683300;2024-02-15T05:34:47;0.70;99.90
2767;DHT22;1391;46.74287300;11.63683300;2024-02-15T05:37:16;0.30;99.90
2767;DHT22;1391;46.74287300;11.63683300;2024-02-15T05:39:43;0.30;99.90
2767;DHT22;1391;46.74287300;11.63683300;2024-02-15T05:42:10;0.40;99.90
2767;DHT22;1391;46.74287300;11.63683300;2024-02-15T05:44:38;0.40;99.90
2767;DHT22;1391;46.74287300;11.63683300;2024-02-15T05:47:07;0.40;99.90
2767;DHT22;1391;46.74287300;11.63683300;2024-02-15T05:49:37;0.30;99.90
2767;DHT22;1391;46.74287300;11.63683300;2024-02-15T05:52:05;0.30;99.90
2767;DHT22;1391;46.74287300;11.63683300;2024-02-15T05:54:35;0.30;99.90
2767;DHT22;1391;46.74287300;11.63683300;2024-02-15T05:57:07;0.40;99.90
2767;DHT22;1391;46.74287300;11.63683300;2024-02-15T05:59:34;0.50;99.90
2767;DHT22;1391;46.74287300;11.63683300;2024-02-15T06:02:02;0.30;99.90
2767;DHT22;1391;46.74287300;11.63683300;2024-02-15T06:04:30;0.30;99.90
2767;DHT22;1391;46.74287300;11.63683300;2024-02-15T06:06:57;0.50;99.90
2767;DHT22;1391;46.74287300;11.63683300;2024-02-15T06:09:27;0.30;99.90
2767;DHT22;1391;46.74287300;11.63683300;2024-02-15T06:11:57;0.60;99.90
2767;DHT22;1391;46.74287300;11.63683300;2024-02-15T06:14:25;0.70;99.90
2767;DHT22;1391;46.74287300;11.63683300;2024-02-15T06:16:53;0.80;99.90
2767;DHT22;1391;46.74287300;11.63683300;2024-02-15T06:19:21;0.80;99.90
2767;DHT22;1391;46.74287300;11.63683300;2024-02-15T06:21:50;0.70;99.90
2767;DHT22;1391;46.74287300;11.63683300;2024-02-15T06:24:18;0.30;99.90
2767;DHT22;1391;46.74287300;11.63683300;2024-02-15T06:26:49;0.30;99.90
2767;DHT22;1391;46.74287300;11.63683300;2024-02-15T06:29:20;0.40;99.90
2767;DHT22;1391;46.74287300;11.63683300;2024-02-15T06:32:08;0.50;99.90
2767;DHT22;1391;46.74287300;11.63683300;2024-02-15T06:34:59;0.30;99.90
2767;DHT22;1391;46.74287300;11.63683300;2024-02-15T06:37:53;0.50;99.90
2767;DHT22;1391;46.74287300;11.63683300;2024-02-15T06:40:44;0.30;99.90
2767;DHT22;1391;46.74287300;11.63683300;2024-02-15T06:43:21;0.30;99.90
2767;DHT22;1391;46.74287300;11.63683300;2024-02-15T06:45:51;0.40;99.90
2767;DHT22;1391;46.74287300;11.63683300;2024-02-15T06:48:18;0.50;99.90
2767;DHT22;1391;46.74287300;11.63683300;2024-02-15T06:50:48;0.30;99.90
2767;DHT22;1391;46.74287300;11.63683300;2024-02-15T06:53:17;0.40;99.90
2767;DHT22;1391;46.74287300;11.63683300;2024-02-15T06:55:46;0.30;99.90
2767;DHT22;1391;46.74287300;11.63683300;2024-02-15T06:58:14;0.50;99.90
2767;DHT22;1391;46.74287300;11.63683300;2024-02-15T07:00:42;0.50;99.90
2767;DHT22;1391;46.74287300;11.63683300;2024-02-15T07:03:11;0.50;99.90
2767;DHT22;1391;46.74287300;11.63683300;2024-02-15T07:05:39;0.50;99.90
2767;DHT22;1391;46.74287300;11.63683300;2024-02-15T07:08:08;1.00;99.90
2767;DHT22;1391;46.74287300;11.63683300;2024-02-15T07:10:39;0.60;99.90
2767;DHT22;1391;46.74287300;11.63683300;2024-02-15T07:13:07;0.60;99.90
2767;DHT22;1391;46.74287300;11.63683300;2024-02-15T07:15:36;0.70;99.90
2767;DHT22;1391;46.74287300;11.63683300;2024-02-15T07:18:05;0.50;99.90
2767;DHT22;1391;46.74287300;11.63683300;2024-02-15T07:20:36;0.90;99.90
2767;DHT22;1391;46.74287300;11.63683300;2024-02-15T07:23:05;0.60;99.90
2767;DHT22;1391;46.74287300;11.63683300;2024-02-15T07:25:33;0.50;99.90
2767;DHT22;1391;46.74287300;11.63683300;2024-02-15T07:28:01;1.00;99.90
2767;DHT22;1391;46.74287300;11.63683300;2024-02-15T07:30:30;0.60;99.90
2767;DHT22;1391;46.74287300;11.63683300;2024-02-15T07:32:59;0.70;99.90
2767;DHT22;1391;46.74287300;11.63683300;2024-02-15T07:35:27;0.60;99.90
2767;DHT22;1391;46.74287300;11.63683300;2024-02-15T07:37:56;0.90;99.90
2767;DHT22;1391;46.74287300;11.63683300;2024-02-15T07:40:26;1.20;99.90
2767;DHT22;1391;46.74287300;11.63683300;2024-02-15T07:42:56;1.20;99.90
2767;DHT22;1391;46.74287300;11.63683300;2024-02-15T07:45:24;1.90;99.90
2767;DHT22;1391;46.74287300;11.63683300;2024-02-15T07:47:51;2.30;99.90
2767;DHT22;1391;46.74287300;11.63683300;2024-02-15T07:50:22;2.40;99.90
2767;DHT22;1391;46.74287300;11.63683300;2024-02-15T07:52:50;3.20;99.90
2767;DHT22;1391;46.74287300;11.63683300;2024-02-15T07:55:20;3.90;95.20
2767;DHT22;1391;46.74287300;11.63683300;2024-02-15T07:57:50;4.30;80.40
2767;DHT22;1391;46.74287300;11.63683300;2024-02-15T08:00:19;4.40;65.00
2767;DHT22;1391;46.74287300;11.63683300;2024-02-15T08:02:48;4.60;54.90
2767;DHT22;1391;46.74287300;11.63683300;2024-02-15T08:05:16;4.70;51.10
2767;DHT22;1391;46.74287300;11.63683300;2024-02-15T08:07:44;5.00;41.10
2767;DHT22;1391;46.74287300;11.63683300;2024-02-15T08:10:13;4.70;37.30
2767;DHT22;1391;46.74287300;11.63683300;2024-02-15T08:12:43;4.70;37.30
2767;DHT22;1391;46.74287300;11.63683300;2024-02-15T08:15:12;5.30;37.30
2767;DHT22;1391;46.74287300;11.63683300;2024-02-15T08:17:41;4.90;32.00
2767;DHT22;1391;46.74287300;11.63683300;2024-02-15T08:20:13;5.30;33.20
2767;DHT22;1391;46.74287300;11.63683300;2024-02-15T08:22:41;5.10;31.00
2767;DHT22;1391;46.74287300;11.63683300;2024-02-15T08:25:10;5.60;28.80
2767;DHT22;1391;46.74287300;11.63683300;2024-02-15T08:27:39;5.40;28.90
2767;DHT22;1391;46.74287300;11.63683300;2024-02-15T08:30:13;5.70;28.10
2767;DHT22;1391;46.74287300;11.63683300;2024-02-15T08:32:45;5.50;27.40
2767;DHT22;1391;46.74287300;11.63683300;2024-02-15T08:35:13;5.90;25.50
2767;DHT22;1391;46.74287300;11.63683300;2024-02-15T08:37:41;5.50;24.60
2767;DHT22;1391;46.74287300;11.63683300;2024-02-15T08:40:13;6.00;23.90
2767;DHT22;1391;46.74287300;11.63683300;2024-02-15T08:42:44;6.00;23.30
2767;DHT22;1391;46.74287300;11.63683300;2024-02-15T08:45:15;5.50;22.00
2767;DHT22;1391;46.74287300;11.63683300;2024-02-15T08:47:43;6.10;22.60
2767;DHT22;1391;46.74287300;11.63683300;2024-02-15T08:50:12;6.50;22.10
2767;DHT22;1391;46.74287300;11.63683300;2024-02-15T08:52:41;6.60;20.40
2767;DHT22;1391;46.74287300;11.63683300;2024-02-15T08:55:10;6.60;20.40
2767;DHT22;1391;46.74287300;11.63683300;2024-02-15T08:57:40;7.00;19.90
2767;DHT22;1391;46.74287300;11.63683300;2024-02-15T09:00:11;6.90;17.00
2767;DHT22;1391;46.74287300;11.63683300;2024-02-15T09:02:44;7.30;16.50
2767;DHT22;1391;46.74287300;11.63683300;2024-02-15T09:05:13;7.40;15.10
2767;DHT22;1391;46.74287300;11.63683300;2024-02-15T09:07:41;7.40;15.20
2767;DHT22;1391;46.74287300;11.63683300;2024-02-15T09:10:13;7.30;16.30
2767;DHT22;1391;46.74287300;11.63683300;2024-02-15T09:12:43;7.40;15.40
2767;DHT22;1391;46.74287300;11.63683300;2024-02-15T09:15:13;7.50;13.40
2767;DHT22;1391;46.74287300;11.63683300;2024-02-15T09:17:43;7.50;12.90
2767;DHT22;1391;46.74287300;11.63683300;2024-02-15T09:20:12;8.00;11.10
2767;DHT22;1391;46.74287300;11.63683300;2024-02-15T09:22:42;8.30;9.20
2767;DHT22;1391;46.74287300;11.63683300;2024-02-15T09:25:12;8.40;7.80
2767;DHT22;1391;46.74287300;11.63683300;2024-02-15T09:27:41;8.30;8.60
2767;DHT22;1391;46.74287300;11.63683300;2024-02-15T09:30:10;8.60;6.80
2767;DHT22;1391;46.74287300;11.63683300;2024-02-15T09:32:39;8.20;7.60
2767;DHT22;1391;46.74287300;11.63683300;2024-02-15T09:35:13;8.30;5.70
2767;DHT22;1391;46.74287300;11.63683300;2024-02-15T09:37:47;8.60;5.60
2767;DHT22;1391;46.74287300;11.63683300;2024-02-15T09:40:18;9.00;5.10
2767;DHT22;1391;46.74287300;11.63683300;2024-02-15T09:42:47;9.10;3.90
2767;DHT22;1391;46.74287300;11.63683300;2024-02-15T09:45:26;9.00;4.10
2767;DHT22;1391;46.74287300;11.63683300;2024-02-15T09:48:14;9.10;3.90
2767;DHT22;1391;46.74287300;11.63683300;2024-02-15T09:50:52;9.00;2.70
2767;DHT22;1391;46.74287300;11.63683300;2024-02-15T09:53:21;9.20;2.40
2767;DHT22;1391;46.74287300;11.63683300;2024-02-15T09:55:54;9.10;1.00
2767;DHT22;1391;46.74287300;11.63683300;2024-02-15T09:58:30;9.60;1.00
2767;DHT22;1391;46.74287300;11.63683300;2024-02-15T10:01:03;9.50;1.00
2767;DHT22;1391;46.74287300;11.63683300;2024-02-15T10:03:37;10.00;1.00
2767;DHT22;1391;46.74287300;11.63683300;2024-02-15T10:06:08;9.60;1.00
2767;DHT22;1391;46.74287300;11.63683300;2024-02-15T10:08:37;9.50;1.00
2767;DHT22;1391;46.74287300;11.63683300;2024-02-15T10:11:09;9.80;1.00
2767;DHT22;1391;46.74287300;11.63683300;2024-02-15T10:13:37;9.90;1.00
2767;DHT22;1391;46.74287300;11.63683300;2024-02-15T10:16:15;10.20;1.00
2767;DHT22;1391;46.74287300;11.63683300;2024-02-15T10:18:44;10.60;1.00
2767;DHT22;1391;46.74287300;11.63683300;2024-02-15T10:21:25;10.40;1.00
2767;DHT22;1391;46.74287300;11.63683300;2024-02-15T10:24:06;10.50;1.00
2767;DHT22;1391;46.74287300;11.63683300;2024-02-15T10:26:36;10.50;1.00
2767;DHT22;1391;46.74287300;11.63683300;2024-02-15T10:29:06;10.50;1.00
2767;DHT22;1391;46.74287300;11.63683300;2024-02-15T10:31:37;11.40;1.00
2767;DHT22;1391;46.74287300;11.63683300;2024-02-15T10:34:07;11.90;1.00
2767;DHT22;1391;46.74287300;11.63683300;2024-02-15T10:36:36;12.00;1.00
2767;DHT22;1391;46.74287300;11.63683300;2024-02-15T10:39:12;11.90;1.00
2767;DHT22;1391;46.74287300;11.63683300;2024-02-15T10:41:48;11.60;1.00
2767;DHT22;1391;46.74287300;11.63683300;2024-02-15T10:44:17;11.60;1.00
2767;DHT22;1391;46.74287300;11.63683300;2024-02-15T10:46:47;11.90;1.00
2767;DHT22;1391;46.74287300;11.63683300;2024-02-15T10:49:19;12.80;1.00
2767;DHT22;1391;46.74287300;11.63683300;2024-02-15T10:51:52;13.30;1.00
2767;DHT22;1391;46.74287300;11.63683300;2024-02-15T10:54:41;13.20;1.00
2767;DHT22;1391;46.74287300;11.63683300;2024-02-15T10:57:15;14.10;1.00
2767;DHT22;1391;46.74287300;11.63683300;2024-02-15T10:59:54;13.40;1.00
2767;DHT22;1391;46.74287300;11.63683300;2024-02-15T11:02:27;13.80;1.00
2767;DHT22;1391;46.74287300;11.63683300;2024-02-15T11:05:06;14.40;1.00
2767;DHT22;1391;46.74287300;11.63683300;2024-02-15T11:07:38;15.00;1.00
2767;DHT22;1391;46.74287300;11.63683300;2024-02-15T11:10:07;14.90;1.00
2767;DHT22;1391;46.74287300;11.63683300;2024-02-15T11:12:37;13.80;1.00
2767;DHT22;1391;46.74287300;11.63683300;2024-02-15T11:15:08;13.70;1.00
2767;DHT22;1391;46.74287300;11.63683300;2024-02-15T11:17:47;13.60;1.00
2767;DHT22;1391;46.74287300;11.63683300;2024-02-15T11:20:50;13.80;1.00
2767;DHT22;1391;46.74287300;11.63683300;2024-02-15T11:23:26;13.70;1.00
2767;DHT22;1391;46.74287300;11.63683300;2024-02-15T11:25:53;13.20;1.00
2767;DHT22;1391;46.74287300;11.63683300;2024-02-15T11:28:43;13.70;1.00
2767;DHT22;1391;46.74287300;11.63683300;2024-02-15T11:31:53;14.30;1.00
2767;DHT22;1391;46.74287300;11.63683300;2024-02-15T11:34:44;13.90;1.00
2767;DHT22;1391;46.74287300;11.63683300;2024-02-15T11:37:49;14.20;1.00
2767;DHT22;1391;46.74287300;11.63683300;2024-02-15T11:40:21;14.30;1.00
2767;DHT22;1391;46.74287300;11.63683300;2024-02-15T11:42:50;14.20;1.00
2767;DHT22;1391;46.74287300;11.63683300;2024-02-15T11:45:20;14.30;1.00
2767;DHT22;1391;46.74287300;11.63683300;2024-02-15T11:47:49;14.20;1.00
2767;DHT22;1391;46.74287300;11.63683300;2024-02-15T11:50:19;14.20;1.00
2767;DHT22;1391;46.74287300;11.63683300;2024-02-15T11:52:48;14.00;1.00
2767;DHT22;1391;46.74287300;11.63683300;2024-02-15T11:55:22;13.90;1.00
2767;DHT22;1391;46.74287300;11.63683300;2024-02-15T11:57:56;13.80;1.00
2767;DHT22;1391;46.74287300;11.63683300;2024-02-15T12:00:42;14.40;1.00
2767;DHT22;1391;46.74287300;11.63683300;2024-02-15T12:03:28;14.10;1.00
2767;DHT22;1391;46.74287300;11.63683300;2024-02-15T12:06:17;13.70;1.00
2767;DHT22;1391;46.74287300;11.63683300;2024-02-15T12:09:02;13.60;1.00
2767;DHT22;1391;46.74287300;11.63683300;2024-02-15T12:11:58;14.10;1.00
2767;DHT22;1391;46.74287300;11.63683300;2024-02-15T12:14:43;14.50;1.00
2767;DHT22;1391;46.74287300;11.63683300;2024-02-15T12:17:29;14.60;1.00
2767;DHT22;1391;46.74287300;11.63683300;2024-02-15T12:20:28;14.60;1.00
2767;DHT22;1391;46.74287300;11.63683300;2024-02-15T12:22:58;14.20;1.00
2767;DHT22;1391;46.74287300;11.63683300;2024-02-15T12:25:28;14.70;1.00
2767;DHT22;1391;46.74287300;11.63683300;2024-02-15T12:28:01;14.50;1.00
2767;DHT22;1391;46.74287300;11.63683300;2024-02-15T12:30:33;15.10;1.00
2767;DHT22;1391;46.74287300;11.63683300;2024-02-15T12:33:12;15.50;1.00
2767;DHT22;1391;46.74287300;11.63683300;2024-02-15T12:35:45;15.00;1.00
2767;DHT22;1391;46.74287300;11.63683300;2024-02-15T12:38:13;14.20;1.00
2767;DHT22;1391;46.74287300;11.63683300;2024-02-15T12:40:43;15.10;1.00
2767;DHT22;1391;46.74287300;11.63683300;2024-02-15T12:43:12;15.00;1.00
2767;DHT22;1391;46.74287300;11.63683300;2024-02-15T12:45:41;15.10;1.00
2767;DHT22;1391;46.74287300;11.63683300;2024-02-15T12:48:09;15.00;1.00
2767;DHT22;1391;46.74287300;11.63683300;2024-02-15T12:50:38;15.00;1.00
2767;DHT22;1391;46.74287300;11.63683300;2024-02-15T12:53:06;15.00;1.00
2767;DHT22;1391;46.74287300;11.63683300;2024-02-15T12:55:34;14.60;1.00
2767;DHT22;1391;46.74287300;11.63683300;2024-02-15T12:58:03;14.70;1.00
2767;DHT22;1391;46.74287300;11.63683300;2024-02-15T13:00:36;14.50;1.00
2767;DHT22;1391;46.74287300;11.63683300;2024-02-15T13:03:06;14.60;1.00
2767;DHT22;1391;46.74287300;11.63683300;2024-02-15T13:05:36;14.20;1.00
2767;DHT22;1391;46.74287300;11.63683300;2024-02-15T13:08:04;14.20;1.00
2767;DHT22;1391;46.74287300;11.63683300;2024-02-15T13:10:35;14.60;1.00
2767;DHT22;1391;46.74287300;11.63683300;2024-02-15T13:13:05;14.60;1.00
2767;DHT22;1391;46.74287300;11.63683300;2024-02-15T13:15:37;15.00;1.00
2767;DHT22;1391;46.74287300;11.63683300;2024-02-15T13:18:06;15.00;1.00
2767;DHT22;1391;46.74287300;11.63683300;2024-02-15T13:20:37;15.00;1.00
2767;DHT22;1391;46.74287300;11.63683300;2024-02-15T13:23:06;15.00;1.00
2767;DHT22;1391;46.74287300;11.63683300;2024-02-15T13:25:41;15.10;1.00
2767;DHT22;1391;46.74287300;11.63683300;2024-02-15T13:28:11;15.00;1.00
2767;DHT22;1391;46.74287300;11.63683300;2024-02-15T13:30:41;15.00;1.00
2767;DHT22;1391;46.74287300;11.63683300;2024-02-15T13:33:10;15.00;1.00
2767;DHT22;1391;46.74287300;11.63683300;2024-02-15T13:35:39;15.10;1.00
2767;DHT22;1391;46.74287300;11.63683300;2024-02-15T13:38:07;15.00;1.00
2767;DHT22;1391;46.74287300;11.63683300;2024-02-15T13:40:40;15.10;1.00
2767;DHT22;1391;46.74287300;11.63683300;2024-02-15T13:43:08;14.70;1.00
2767;DHT22;1391;46.74287300;11.63683300;2024-02-15T13:45:40;14.60;1.00
2767;DHT22;1391;46.74287300;11.63683300;2024-02-15T13:48:08;14.60;1.00
2767;DHT22;1391;46.74287300;11.63683300;2024-02-15T13:50:36;13.80;1.00
2767;DHT22;1391;46.74287300;11.63683300;2024-02-15T13:53:04;14.00;1.00
2767;DHT22;1391;46.74287300;11.63683300;2024-02-15T13:55:32;13.80;1.00
2767;DHT22;1391;46.74287300;11.63683300;2024-02-15T13:58:00;13.60;1.00
2767;DHT22;1391;46.74287300;11.63683300;2024-02-15T14:00:28;13.30;1.00
2767;DHT22;1391;46.74287300;11.63683300;2024-02-15T14:03:01;13.40;1.00
2767;DHT22;1391;46.74287300;11.63683300;2024-02-15T14:05:32;13.20;1.00